PWSweather.com
Personal Weather Stations
Station Observations
SHCOS1962
Stetson Hills, Colorado Springs, CO 80922

Stetson HillsColorado Springs, CO 80922

Lat: 38.9007273245919, Lon: -104.706439375877

Elevation: 6624

Station Type: Zephyr PWS-1000TD

http://www.stetsonweather.com

Latest ConditionsUpdated 5:30:09 AM MDT Friday, Aug 22, 2014
Currently Today's Max Today's Min Today's Average
Temperature 59.7°F15.4°C 66.4°F19.1°C 59.7°F15.4°C 63.0°F17.2°C
Dew Point 50.3°F10.2°C 51.2°F10.7°C 49.6°F9.8°C 50.4°F10.2°C
Winds 1.0 mph 1.6 kmh 3.0 mph 4.8 kmh - 1.7 mph 2.7 kmh
Wind Gusts 5.0 mph8.0 kmh 9.0 mph14.5 kmh - -
Humidity 71% 71% 57% 63%
Pressure 30.17 in1021.7 mb 30.17 in1021.7 mb 30.15 in1021.0 mb -
Hour Temp Dew Point Humidity Winds Wind Gusts Pressure Precip Precip Rate Daily Precip Total
05:30 AM 59.7°F15.4°C 50.3°F10.2°C 71% 1.0 mph 1.6 kmh 5.0 mph8.0 kmh 30.17 in1021.7 mb 0.00 in0.0 mm 0.00 in/hr0.0 mm/hr 0.00 in0.0 mm
05:15 AM 59.9°F15.5°C 50.1°F10.1°C 70% Calm Calm 3.0 mph4.8 kmh 30.16 in1021.3 mb 0.00 in0.0 mm 0.00 in/hr0.0 mm/hr 0.00 in0.0 mm
05:00 AM 60.1°F15.6°C 49.9°F9.9°C 69% 2.0 mph 3.2 kmh 6.0 mph9.7 kmh 30.16 in1021.3 mb 0.00 in0.0 mm 0.00 in/hr0.0 mm/hr 0.00 in0.0 mm
04:45 AM 60.1°F15.6°C 49.9°F9.9°C 69% 2.0 mph 3.2 kmh 6.0 mph9.7 kmh 30.16 in1021.3 mb 0.00 in0.0 mm 0.00 in/hr0.0 mm/hr 0.00 in0.0 mm
04:30 AM 60.3°F15.7°C 50.0°F10.0°C 69% 3.0 mph 4.8 kmh 7.0 mph11.3 kmh 30.16 in1021.3 mb 0.00 in0.0 mm 0.00 in/hr0.0 mm/hr 0.00 in0.0 mm
04:15 AM 60.4°F15.8°C 49.8°F9.9°C 68% 2.0 mph 3.2 kmh 6.0 mph9.7 kmh 30.16 in1021.3 mb 0.00 in0.0 mm 0.00 in/hr0.0 mm/hr 0.00 in0.0 mm
04:00 AM 60.6°F15.9°C 49.6°F9.8°C 67% 2.0 mph N3.2 kmh N 3.0 mph4.8 kmh 30.16 in1021.3 mb 0.00 in0.0 mm 0.00 in/hr0.0 mm/hr 0.00 in0.0 mm
03:45 AM 61.0°F16.1°C 49.9°F9.9°C 67% 2.0 mph N3.2 kmh N 6.0 mph9.7 kmh 30.15 in1021.0 mb 0.00 in0.0 mm 0.00 in/hr0.0 mm/hr 0.00 in0.0 mm
03:30 AM 61.5°F16.4°C 50.1°F10.1°C 66% 3.0 mph 4.8 kmh 7.0 mph11.3 kmh 30.15 in1021.0 mb 0.00 in0.0 mm 0.00 in/hr0.0 mm/hr 0.00 in0.0 mm
03:15 AM 62.2°F16.8°C 50.3°F10.2°C 65% 2.0 mph N3.2 kmh N 8.0 mph12.9 kmh 30.15 in1021.0 mb 0.00 in0.0 mm 0.00 in/hr0.0 mm/hr 0.00 in0.0 mm
03:00 AM 63.0°F17.2°C 50.2°F10.1°C 63% 2.0 mph N3.2 kmh N 6.0 mph9.7 kmh 30.16 in1021.3 mb 0.00 in0.0 mm 0.00 in/hr0.0 mm/hr 0.00 in0.0 mm
02:45 AM 63.7°F17.6°C 50.4°F10.2°C 62% 1.0 mph 1.6 kmh 3.0 mph4.8 kmh 30.15 in1021.0 mb 0.00 in0.0 mm 0.00 in/hr0.0 mm/hr 0.00 in0.0 mm
02:30 AM 63.8°F17.7°C 50.1°F10.1°C 61% 1.0 mph 1.6 kmh 3.0 mph4.8 kmh 30.16 in1021.3 mb 0.00 in0.0 mm 0.00 in/hr0.0 mm/hr 0.00 in0.0 mm
02:15 AM 63.9°F17.7°C 50.1°F10.1°C 61% 1.0 mph 1.6 kmh 6.0 mph9.7 kmh 30.16 in1021.3 mb 0.00 in0.0 mm 0.00 in/hr0.0 mm/hr 0.00 in0.0 mm
02:00 AM 64.1°F17.8°C 50.4°F10.2°C 61% 2.0 mph 3.2 kmh 5.0 mph8.0 kmh 30.16 in1021.3 mb 0.00 in0.0 mm 0.00 in/hr0.0 mm/hr 0.00 in0.0 mm
01:45 AM 64.8°F18.2°C 50.5°F10.3°C 60% 1.0 mph 1.6 kmh 6.0 mph9.7 kmh 30.16 in1021.3 mb 0.00 in0.0 mm 0.00 in/hr0.0 mm/hr 0.00 in0.0 mm
01:30 AM 65.1°F18.4°C 50.9°F10.5°C 60% 2.0 mph 3.2 kmh 9.0 mph14.5 kmh 30.16 in1021.3 mb 0.00 in0.0 mm 0.00 in/hr0.0 mm/hr 0.00 in0.0 mm
01:15 AM 65.5°F18.6°C 51.2°F10.7°C 60% 3.0 mph 4.8 kmh 7.0 mph11.3 kmh 30.16 in1021.3 mb 0.00 in0.0 mm 0.00 in/hr0.0 mm/hr 0.00 in0.0 mm
01:00 AM 65.7°F18.7°C 50.9°F10.5°C 59% Calm Calm 2.0 mph3.2 kmh 30.16 in1021.3 mb 0.00 in0.0 mm 0.00 in/hr0.0 mm/hr 0.00 in0.0 mm
12:45 AM 65.7°F18.7°C 51.0°F10.6°C 59% 3.0 mph 4.8 kmh 7.0 mph11.3 kmh 30.16 in1021.3 mb 0.00 in0.0 mm 0.00 in/hr0.0 mm/hr 0.00 in0.0 mm
12:30 AM 66.0°F18.9°C 50.8°F10.4°C 58% 2.0 mph N3.2 kmh N 6.0 mph9.7 kmh 30.17 in1021.7 mb 0.00 in0.0 mm 0.00 in/hr0.0 mm/hr 0.00 in0.0 mm
12:15 AM 66.2°F19.0°C 51.0°F10.6°C 58% 1.0 mph 1.6 kmh 3.0 mph4.8 kmh 30.16 in1021.3 mb 0.00 in0.0 mm 0.00 in/hr0.0 mm/hr 0.00 in0.0 mm
12:00 AM 66.4°F19.1°C 50.7°F10.4°C 57% 2.0 mph 3.2 kmh 3.0 mph4.8 kmh 30.16 in1021.3 mb 0.00 in0.0 mm 0.00 in/hr0.0 mm/hr 0.00 in0.0 mm